ADDS METAR Data INFO
IDs: Format: Raw Decoded Include TAF

Data at: 0741 UTC 23 Jul 2018

KHSE 230724Z AUTO 16015G23KT 7SM VCTS FEW019 BKN024 28/25 A2988 RMK AO2 PK WND 16028/0707 LTG DSNT SW-NW T02780250
KHSE 230720Z AUTO 15016G26KT 8SM SCT024 28/25 A2988 RMK AO2 PK WND 16028/0707 LTG DSNT SW-NW T02780250
KHSE 230651Z AUTO 16020G25KT 8SM SCT018 BKN024 BKN070 28/26 A2988 RMK AO2 PK WND 17027/0608 LTG DSNT ALQDS SLP118 T02780256
KHSE 230551Z AUTO 16020G26KT 8SM FEW022 SCT046 SCT055 28/26 A2988 RMK AO2 PK WND 17027/0507 LTG DSNT SW-NW SLP118 60014 T02780256 10289 20261 50001
KHSE 230538Z AUTO 16018G26KT 8SM FEW020 SCT028 BKN046 28/26 A2988 RMK AO2 PK WND 17027/0507 LTG DSNT SW-N T02780256
KHSE 230523Z AUTO 16017G26KT 8SM VCTS FEW020 BKN040 OVC055 28/26 A2989 RMK AO2 PK WND 17027/0507 LTG DSNT W-N T02780256
KHSE 230451Z AUTO 16017G24KT 7SM FEW027 28/26 A2989 RMK AO2 PK WND 17026/0430 LTG DSNT SW-NW SLP119 T02780256 403220261
KHSE 230441Z AUTO 16020G25KT 8SM FEW017 SCT027 28/26 A2988 RMK AO2 PK WND 17026/0430 LTG DSNT NW T02780256
KHSE 230427Z AUTO 16018G22KT 7SM FEW017 BKN027 28/26 A2989 RMK AO2 LTG DSNT W AND NW T02780261
KHSE 230351Z AUTO 16016G22KT 7SM FEW022 27/26 A2988 RMK AO2 PK WND 16032/0322 LTG DSNT SW AND W RAB24E37 SLP117 P0014 T02720261
KHSE 230334Z AUTO 16015KT 3SM -RA BR FEW019 BKN024 27/25 A2989 RMK AO2 PK WND 16032/0322 LTG DSNT SW AND W RAB24 P0014 T02670250
KHSE 230324Z AUTO 17022G32KT 1 3/4SM +RA BR BKN021 27/25 A2989 RMK AO2 PK WND 16032/0322 LTG DSNT SW AND W RAB24 P0000 T02720250
KHSE 230322Z AUTO 16023G32KT 4SM BR SCT019 BKN025 28/26 A2990 RMK AO2 PK WND 16032/0322 LTG DSNT SW AND W T02780256
KHSE 230306Z AUTO 17015KT 8SM FEW022 SCT029 28/26 A2989 RMK AO2 T02830256
KHSE 230251Z AUTO 17017G23KT 8SM FEW022 BKN027 28/26 A2989 RMK AO2 SLP122 T02830256 53015
KHSE 230151Z AUTO 17015G24KT 9SM SCT018 BKN025 28/26 A2989 RMK AO2 SLP121 T02830261
KHSE 230130Z AUTO 17016G23KT 8SM SCT018 BKN024 28/26 A2987 RMK AO2 T02830261
KHSE 230114Z AUTO 17017G25KT 9SM SCT024 28/26 A2986 RMK AO2 T02830256
KHSE 230104Z AUTO 17017KT 9SM BKN024 28/26 A2986 RMK AO2 T02830256
KHSE 230051Z AUTO 17014KT 8SM FEW017 SCT028 SCT036 28/26 A2985 RMK AO2 SLP108 T02830261
KHSE 230031Z AUTO 17015KT 9SM SCT019 BKN028 BKN040 28/26 A2985 RMK AO2 T02830261
KHSE 222351Z AUTO 17016G22KT 8SM SCT030 29/26 A2985 RMK AO2 SLP107 T02890256 10322 20289 51006
KHSE 222251Z AUTO 16013KT 10SM CLR 30/25 A2984 RMK AO2 SLP104 T03000250
KHSE 222151Z AUTO 17015KT 10SM CLR 29/26 A2984 RMK AO2 SLP104 T02940256
KHSE 222051Z AUTO 17015G21KT 10SM CLR 31/26 A2983 RMK AO2 SLP101 T03110256 55005
KHSE 221951Z AUTO 17015KT 10SM CLR 31/26 A2983 RMK AO2 SLP100 T03110256
KHSE 221851Z AUTO 17014G21KT 10SM CLR 31/26 A2983 RMK AO2 SLP102 T03110261
KHSE 221751Z AUTO 17013KT 10SM CLR 32/26 A2985 RMK AO2 SLP106 T03170261 10322 20278 56003
KHSE 221651Z AUTO 17013KT 10SM CLR 32/26 A2985 RMK AO2 LTG DSNT NW SLP107 T03170256
KHSE 221551Z AUTO 16014KT 10SM CLR 32/26 A2985 RMK AO2 LTG DSNT SW AND W SLP108 T03170261
KHSE 221451Z AUTO 16011KT 10SM FEW026 31/26 A2986 RMK AO2 SLP110 T03110256 51009
KHSE 221351Z AUTO 16011KT 10SM CLR 30/26 A2985 RMK AO2 SLP106 T03000256
KHSE 221334Z AUTO 17011KT 10SM FEW018 SCT023 29/26 A2985 RMK AO2 T02940256
KHSE 221319Z AUTO 17008KT 10SM BKN020 28/26 A2985 RMK AO2 T02830256
KHSE 221251Z AUTO 17007KT 10SM CLR 28/25 A2984 RMK AO2 SLP105 T02830250
KHSE 221151Z AUTO 17006KT 10SM CLR 28/25 A2983 RMK AO2 SLP100 70092 T02780250 10278 20261 53008
KHSE 221051Z AUTO 19005KT 6SM BR CLR 27/25 A2982 RMK AO2 SLP096 T02670250
KHSE 220951Z AUTO 21005KT 8SM CLR 26/24 A2981 RMK AO2 SLP095 T02610244
KHSE 220851Z AUTO 21005KT 9SM FEW021 SCT026 26/24 A2981 RMK AO2 SLP092 T02610244 56003
KHSE 220751Z AUTO 21006KT 10SM FEW019 26/24 A2980 RMK AO2 SLP092 T02610244
KHSE 220651Z AUTO 21008KT 9SM FEW018 SCT024 26/24 A2981 RMK AO2 SLP094 T02610244
KHSE 220551Z AUTO 21008KT 10SM CLR 26/24 A2982 RMK AO2 SLP096 T02610244 10267 20261 58001
KHSE 220451Z AUTO 21009KT 10SM CLR 26/24 A2982 RMK AO2 SLP098 T02610244 402830239
KHSE 220351Z AUTO 22010G16KT 10SM CLR 26/24 A2981 RMK AO2 SLP095 T02610239
KHSE 220251Z AUTO 22011KT 10SM CLR 27/24 A2982 RMK AO2 SLP096 T02670239 51010
KHSE 220151Z AUTO 22013G21KT 10SM SCT018 26/24 A2981 RMK AO2 SLP093 T02610239
KHSE 220149Z AUTO 22012G19KT 10SM SCT018 26/24 A2981 RMK AO2
KHSE 220142Z AUTO 22011G18KT 10SM BKN018 26/24 A2980 RMK AO2 T02610239
KHSE 220051Z AUTO 23013G21KT 10SM CLR 26/24 A2979 RMK AO2 SLP086 T02610239
KHSE 212351Z AUTO 23013G21KT 9SM FEW018 26/24 A2978 RMK AO2 SLP082 60005 T02610239 10283 20250 53013
KHSE 212251Z AUTO 23016G21KT 10SM FEW020 SCT026 SCT037 27/24 A2975 RMK AO2 SLP074 T02670239
KHSE 212151Z AUTO 23013G21KT 10SM FEW021 FEW027 BKN045 27/24 A2974 RMK AO2 SLP070 T02720239
KHSE 212051Z AUTO 25008G16KT 8SM FEW027 OVC037 27/23 A2974 RMK AO2 RAB15E35 SLP069 P0000 60005 T02670233 50012
KHSE 212048Z AUTO 25010G16KT 8SM FEW019 SCT028 OVC037 27/23 A2974 RMK AO2 RAB15E35 P0000
KHSE 212027Z AUTO 26011G19KT 8SM -RA SCT016 BKN026 OVC033 26/24 A2973 RMK AO2 RAB15 P0000 T02560239
KHSE 211951Z AUTO 25012G19KT 8SM FEW013 BKN033 28/24 A2971 RMK AO2 SLP061 T02780244